sensor_id;sensor_type;location;lat;lon;timestamp;P1;durP1;ratioP1;P2;durP2;ratioP2
568;SDS011;269;48.884;9.192;2023-04-24T00:01:34;2.08;;;1.08;;
568;SDS011;269;48.884;9.192;2023-04-24T00:04:02;3.22;;;1.20;;
568;SDS011;269;48.884;9.192;2023-04-24T00:06:29;1.98;;;1.05;;
568;SDS011;269;48.884;9.192;2023-04-24T00:08:58;1.27;;;1.00;;
568;SDS011;269;48.884;9.192;2023-04-24T00:11:27;1.10;;;0.90;;
568;SDS011;269;48.884;9.192;2023-04-24T00:13:54;1.63;;;1.10;;
568;SDS011;269;48.884;9.192;2023-04-24T00:16:22;0.95;;;0.80;;
568;SDS011;269;48.884;9.192;2023-04-24T00:18:49;1.23;;;0.82;;
568;SDS011;269;48.884;9.192;2023-04-24T00:21:17;1.00;;;0.82;;
568;SDS011;269;48.884;9.192;2023-04-24T00:23:45;1.73;;;0.95;;
568;SDS011;269;48.884;9.192;2023-04-24T00:26:12;1.10;;;1.00;;
568;SDS011;269;48.884;9.192;2023-04-24T00:28:40;1.50;;;1.10;;
568;SDS011;269;48.884;9.192;2023-04-24T00:31:08;1.48;;;0.90;;
568;SDS011;269;48.884;9.192;2023-04-24T00:33:35;1.80;;;0.80;;
568;SDS011;269;48.884;9.192;2023-04-24T00:36:02;1.42;;;0.80;;
568;SDS011;269;48.884;9.192;2023-04-24T00:38:29;1.60;;;0.80;;
568;SDS011;269;48.884;9.192;2023-04-24T00:40:56;1.55;;;0.90;;
568;SDS011;269;48.884;9.192;2023-04-24T00:43:23;1.80;;;1.10;;
568;SDS011;269;48.884;9.192;2023-04-24T00:45:52;1.60;;;0.75;;
568;SDS011;269;48.884;9.192;2023-04-24T00:48:19;2.85;;;1.00;;
568;SDS011;269;48.884;9.192;2023-04-24T00:50:47;1.30;;;1.05;;
568;SDS011;269;48.884;9.192;2023-04-24T00:53:14;2.15;;;1.00;;
568;SDS011;269;48.884;9.192;2023-04-24T00:55:41;1.40;;;0.80;;
568;SDS011;269;48.884;9.192;2023-04-24T00:58:08;1.25;;;0.77;;
568;SDS011;269;48.884;9.192;2023-04-24T01:00:35;1.38;;;0.90;;
568;SDS011;269;48.884;9.192;2023-04-24T01:03:05;2.38;;;1.02;;
568;SDS011;269;48.884;9.192;2023-04-24T01:05:32;1.08;;;0.98;;
568;SDS011;269;48.884;9.192;2023-04-24T01:08:00;1.15;;;0.88;;
568;SDS011;269;48.884;9.192;2023-04-24T01:10:28;1.20;;;0.82;;
568;SDS011;269;48.884;9.192;2023-04-24T01:12:58;2.15;;;1.00;;
568;SDS011;269;48.884;9.192;2023-04-24T01:15:25;2.10;;;1.20;;
568;SDS011;269;48.884;9.192;2023-04-24T01:17:52;1.35;;;1.05;;
568;SDS011;269;48.884;9.192;2023-04-24T01:20:20;2.15;;;1.05;;
568;SDS011;269;48.884;9.192;2023-04-24T01:22:51;1.33;;;0.90;;
568;SDS011;269;48.884;9.192;2023-04-24T01:25:18;2.28;;;1.00;;
568;SDS011;269;48.884;9.192;2023-04-24T01:27:45;1.00;;;0.90;;
568;SDS011;269;48.884;9.192;2023-04-24T01:30:13;1.52;;;0.88;;
568;SDS011;269;48.884;9.192;2023-04-24T01:32:40;1.70;;;0.90;;
568;SDS011;269;48.884;9.192;2023-04-24T01:35:10;0.95;;;0.80;;
568;SDS011;269;48.884;9.192;2023-04-24T01:37:37;1.23;;;0.80;;
568;SDS011;269;48.884;9.192;2023-04-24T01:40:06;1.40;;;0.88;;
568;SDS011;269;48.884;9.192;2023-04-24T01:42:34;1.40;;;0.80;;
568;SDS011;269;48.884;9.192;2023-04-24T01:45:02;2.80;;;0.90;;
568;SDS011;269;48.884;9.192;2023-04-24T01:47:30;1.10;;;0.80;;
568;SDS011;269;48.884;9.192;2023-04-24T01:49:58;1.60;;;1.00;;
568;SDS011;269;48.884;9.192;2023-04-24T01:52:25;1.63;;;0.88;;
568;SDS011;269;48.884;9.192;2023-04-24T01:54:54;1.10;;;0.80;;
568;SDS011;269;48.884;9.192;2023-04-24T01:57:22;2.80;;;1.20;;
568;SDS011;269;48.884;9.192;2023-04-24T01:59:50;1.58;;;0.98;;
568;SDS011;269;48.884;9.192;2023-04-24T02:02:17;1.30;;;0.90;;
568;SDS011;269;48.884;9.192;2023-04-24T02:04:46;1.17;;;0.90;;
568;SDS011;269;48.884;9.192;2023-04-24T02:07:13;0.90;;;0.80;;
568;SDS011;269;48.884;9.192;2023-04-24T02:09:40;1.25;;;0.90;;
568;SDS011;269;48.884;9.192;2023-04-24T02:12:07;1.00;;;0.90;;
568;SDS011;269;48.884;9.192;2023-04-24T02:14:35;1.13;;;1.00;;
568;SDS011;269;48.884;9.192;2023-04-24T02:17:02;1.67;;;0.85;;
568;SDS011;269;48.884;9.192;2023-04-24T02:19:30;0.80;;;0.70;;
568;SDS011;269;48.884;9.192;2023-04-24T02:21:57;1.05;;;0.90;;
568;SDS011;269;48.884;9.192;2023-04-24T02:24:24;2.40;;;1.10;;
568;SDS011;269;48.884;9.192;2023-04-24T02:26:51;1.67;;;1.15;;
568;SDS011;269;48.884;9.192;2023-04-24T02:29:18;1.98;;;1.00;;
568;SDS011;269;48.884;9.192;2023-04-24T02:31:46;1.15;;;0.90;;
568;SDS011;269;48.884;9.192;2023-04-24T02:34:13;1.88;;;0.95;;
568;SDS011;269;48.884;9.192;2023-04-24T02:36:41;1.98;;;0.93;;
568;SDS011;269;48.884;9.192;2023-04-24T02:39:08;2.78;;;1.02;;
568;SDS011;269;48.884;9.192;2023-04-24T02:41:35;1.58;;;1.10;;
568;SDS011;269;48.884;9.192;2023-04-24T02:44:02;2.45;;;0.95;;
568;SDS011;269;48.884;9.192;2023-04-24T02:46:29;1.75;;;0.90;;
568;SDS011;269;48.884;9.192;2023-04-24T02:48:58;1.25;;;0.80;;
568;SDS011;269;48.884;9.192;2023-04-24T02:51:25;1.48;;;1.05;;
568;SDS011;269;48.884;9.192;2023-04-24T02:53:52;1.27;;;1.05;;
568;SDS011;269;48.884;9.192;2023-04-24T02:56:19;1.20;;;1.10;;
568;SDS011;269;48.884;9.192;2023-04-24T02:58:46;2.20;;;1.15;;
568;SDS011;269;48.884;9.192;2023-04-24T03:01:13;2.20;;;1.10;;
568;SDS011;269;48.884;9.192;2023-04-24T03:03:40;1.35;;;1.25;;
568;SDS011;269;48.884;9.192;2023-04-24T03:06:09;1.50;;;1.02;;
568;SDS011;269;48.884;9.192;2023-04-24T03:08:36;1.33;;;1.02;;
568;SDS011;269;48.884;9.192;2023-04-24T03:11:03;1.20;;;0.95;;
568;SDS011;269;48.884;9.192;2023-04-24T03:13:30;2.10;;;1.10;;
568;SDS011;269;48.884;9.192;2023-04-24T03:15:57;1.10;;;1.00;;
568;SDS011;269;48.884;9.192;2023-04-24T03:18:24;1.33;;;1.20;;
568;SDS011;269;48.884;9.192;2023-04-24T03:20:51;1.20;;;1.10;;
568;SDS011;269;48.884;9.192;2023-04-24T03:23:20;1.92;;;1.17;;
568;SDS011;269;48.884;9.192;2023-04-24T03:25:47;1.20;;;1.10;;
568;SDS011;269;48.884;9.192;2023-04-24T03:28:14;1.27;;;1.17;;
568;SDS011;269;48.884;9.192;2023-04-24T03:30:41;2.10;;;1.00;;
568;SDS011;269;48.884;9.192;2023-04-24T03:33:08;1.15;;;0.90;;
568;SDS011;269;48.884;9.192;2023-04-24T03:35:35;2.08;;;1.10;;
568;SDS011;269;48.884;9.192;2023-04-24T03:38:02;1.58;;;1.13;;
568;SDS011;269;48.884;9.192;2023-04-24T03:40:31;2.38;;;1.27;;
568;SDS011;269;48.884;9.192;2023-04-24T03:42:59;1.60;;;1.10;;
568;SDS011;269;48.884;9.192;2023-04-24T03:45:26;1.52;;;1.00;;
568;SDS011;269;48.884;9.192;2023-04-24T03:47:52;1.20;;;1.10;;
568;SDS011;269;48.884;9.192;2023-04-24T03:50:20;1.88;;;1.35;;
568;SDS011;269;48.884;9.192;2023-04-24T03:52:47;1.20;;;1.10;;
568;SDS011;269;48.884;9.192;2023-04-24T03:55:13;1.70;;;1.55;;
568;SDS011;269;48.884;9.192;2023-04-24T03:57:42;2.17;;;1.08;;
568;SDS011;269;48.884;9.192;2023-04-24T04:00:10;1.60;;;0.90;;
568;SDS011;269;48.884;9.192;2023-04-24T04:02:37;1.20;;;0.90;;
568;SDS011;269;48.884;9.192;2023-04-24T04:05:05;1.77;;;1.10;;
568;SDS011;269;48.884;9.192;2023-04-24T04:07:33;1.15;;;0.88;;
568;SDS011;269;48.884;9.192;2023-04-24T04:10:00;1.10;;;1.00;;
568;SDS011;269;48.884;9.192;2023-04-24T04:12:27;1.17;;;1.00;;
568;SDS011;269;48.884;9.192;2023-04-24T04:14:56;1.13;;;1.00;;
568;SDS011;269;48.884;9.192;2023-04-24T04:17:23;1.15;;;1.00;;
568;SDS011;269;48.884;9.192;2023-04-24T04:19:50;1.55;;;1.13;;
568;SDS011;269;48.884;9.192;2023-04-24T04:22:17;1.40;;;1.20;;
568;SDS011;269;48.884;9.192;2023-04-24T04:24:44;1.63;;;1.40;;
568;SDS011;269;48.884;9.192;2023-04-24T04:27:11;2.42;;;1.48;;
568;SDS011;269;48.884;9.192;2023-04-24T04:29:38;1.42;;;1.30;;
568;SDS011;269;48.884;9.192;2023-04-24T04:32:07;1.70;;;1.20;;
568;SDS011;269;48.884;9.192;2023-04-24T04:34:34;1.80;;;1.40;;
568;SDS011;269;48.884;9.192;2023-04-24T04:37:02;1.48;;;1.10;;
568;SDS011;269;48.884;9.192;2023-04-24T04:39:29;1.40;;;1.25;;
568;SDS011;269;48.884;9.192;2023-04-24T04:41:57;1.55;;;1.30;;
568;SDS011;269;48.884;9.192;2023-04-24T04:44:24;1.52;;;1.42;;
568;SDS011;269;48.884;9.192;2023-04-24T04:46:52;1.63;;;1.50;;
568;SDS011;269;48.884;9.192;2023-04-24T04:49:23;1.55;;;1.45;;
568;SDS011;269;48.884;9.192;2023-04-24T04:51:50;1.48;;;1.20;;
568;SDS011;269;48.884;9.192;2023-04-24T04:54:17;1.60;;;1.30;;
568;SDS011;269;48.884;9.192;2023-04-24T04:56:44;1.50;;;1.20;;
568;SDS011;269;48.884;9.192;2023-04-24T04:59:11;2.58;;;1.52;;
568;SDS011;269;48.884;9.192;2023-04-24T05:01:38;2.78;;;1.75;;
568;SDS011;269;48.884;9.192;2023-04-24T05:04:06;2.55;;;1.50;;
568;SDS011;269;48.884;9.192;2023-04-24T05:06:34;1.70;;;1.60;;
568;SDS011;269;48.884;9.192;2023-04-24T05:09:01;1.70;;;1.60;;
568;SDS011;269;48.884;9.192;2023-04-24T05:11:29;2.00;;;1.85;;
568;SDS011;269;48.884;9.192;2023-04-24T05:13:56;3.20;;;1.90;;
568;SDS011;269;48.884;9.192;2023-04-24T05:16:23;2.53;;;1.50;;
568;SDS011;269;48.884;9.192;2023-04-24T05:18:50;2.30;;;1.60;;
568;SDS011;269;48.884;9.192;2023-04-24T05:21:17;1.45;;;1.35;;
568;SDS011;269;48.884;9.192;2023-04-24T05:23:46;3.15;;;1.70;;
568;SDS011;269;48.884;9.192;2023-04-24T05:26:13;2.00;;;1.70;;
568;SDS011;269;48.884;9.192;2023-04-24T05:28:40;1.95;;;1.80;;
568;SDS011;269;48.884;9.192;2023-04-24T05:31:07;1.70;;;1.60;;
568;SDS011;269;48.884;9.192;2023-04-24T05:33:34;2.33;;;2.13;;
568;SDS011;269;48.884;9.192;2023-04-24T05:36:01;2.05;;;1.95;;
568;SDS011;269;48.884;9.192;2023-04-24T05:38:28;2.05;;;1.85;;
568;SDS011;269;48.884;9.192;2023-04-24T05:40:57;1.90;;;1.80;;
568;SDS011;269;48.884;9.192;2023-04-24T05:43:24;2.10;;;2.00;;
568;SDS011;269;48.884;9.192;2023-04-24T05:45:51;3.08;;;1.92;;
568;SDS011;269;48.884;9.192;2023-04-24T05:48:19;2.25;;;2.13;;
568;SDS011;269;48.884;9.192;2023-04-24T05:50:47;2.80;;;1.92;;
568;SDS011;269;48.884;9.192;2023-04-24T05:53:14;2.30;;;2.15;;
568;SDS011;269;48.884;9.192;2023-04-24T05:55:41;3.47;;;2.22;;
568;SDS011;269;48.884;9.192;2023-04-24T05:58:10;2.40;;;2.20;;
568;SDS011;269;48.884;9.192;2023-04-24T06:00:37;2.08;;;1.98;;
568;SDS011;269;48.884;9.192;2023-04-24T06:03:08;2.40;;;2.20;;
568;SDS011;269;48.884;9.192;2023-04-24T06:05:35;2.20;;;2.10;;
568;SDS011;269;48.884;9.192;2023-04-24T06:08:02;4.30;;;2.30;;
568;SDS011;269;48.884;9.192;2023-04-24T06:10:29;2.53;;;2.33;;
568;SDS011;269;48.884;9.192;2023-04-24T06:12:56;2.30;;;2.10;;
568;SDS011;269;48.884;9.192;2023-04-24T06:15:28;2.05;;;1.95;;
568;SDS011;269;48.884;9.192;2023-04-24T06:17:56;2.17;;;1.98;;
568;SDS011;269;48.884;9.192;2023-04-24T06:20:23;2.80;;;2.60;;
568;SDS011;269;48.884;9.192;2023-04-24T06:22:50;2.50;;;2.30;;
568;SDS011;269;48.884;9.192;2023-04-24T06:25:18;2.38;;;2.10;;
568;SDS011;269;48.884;9.192;2023-04-24T06:27:45;2.50;;;2.30;;
568;SDS011;269;48.884;9.192;2023-04-24T06:30:12;2.38;;;2.28;;
568;SDS011;269;48.884;9.192;2023-04-24T06:32:41;2.17;;;1.98;;
568;SDS011;269;48.884;9.192;2023-04-24T06:35:08;1.83;;;1.73;;
568;SDS011;269;48.884;9.192;2023-04-24T06:37:36;2.42;;;2.20;;
568;SDS011;269;48.884;9.192;2023-04-24T06:40:04;1.98;;;1.83;;
568;SDS011;269;48.884;9.192;2023-04-24T06:42:32;2.20;;;2.10;;
568;SDS011;269;48.884;9.192;2023-04-24T06:45:00;3.42;;;2.00;;
568;SDS011;269;48.884;9.192;2023-04-24T06:47:27;2.45;;;2.25;;
568;SDS011;269;48.884;9.192;2023-04-24T06:49:55;2.40;;;2.20;;
568;SDS011;269;48.884;9.192;2023-04-24T06:52:22;2.10;;;2.00;;
568;SDS011;269;48.884;9.192;2023-04-24T06:54:50;2.20;;;2.00;;
568;SDS011;269;48.884;9.192;2023-04-24T06:57:17;2.20;;;2.10;;
568;SDS011;269;48.884;9.192;2023-04-24T06:59:44;2.40;;;2.30;;
568;SDS011;269;48.884;9.192;2023-04-24T07:02:11;2.38;;;2.00;;
568;SDS011;269;48.884;9.192;2023-04-24T07:04:38;1.97;;;1.87;;
568;SDS011;269;48.884;9.192;2023-04-24T07:07:07;2.13;;;2.03;;
568;SDS011;269;48.884;9.192;2023-04-24T07:09:38;2.17;;;2.00;;
568;SDS011;269;48.884;9.192;2023-04-24T07:12:07;1.97;;;1.80;;
568;SDS011;269;48.884;9.192;2023-04-24T07:14:35;2.20;;;2.00;;
568;SDS011;269;48.884;9.192;2023-04-24T07:17:03;2.10;;;1.90;;
568;SDS011;269;48.884;9.192;2023-04-24T07:19:30;2.63;;;2.43;;
568;SDS011;269;48.884;9.192;2023-04-24T07:21:57;1.77;;;1.67;;
568;SDS011;269;48.884;9.192;2023-04-24T07:24:26;2.30;;;2.10;;
568;SDS011;269;48.884;9.192;2023-04-24T07:26:53;2.70;;;1.80;;
568;SDS011;269;48.884;9.192;2023-04-24T07:29:20;3.00;;;1.95;;
568;SDS011;269;48.884;9.192;2023-04-24T07:31:47;1.90;;;1.70;;
568;SDS011;269;48.884;9.192;2023-04-24T07:34:14;2.55;;;1.83;;
568;SDS011;269;48.884;9.192;2023-04-24T07:36:41;2.63;;;1.98;;
568;SDS011;269;48.884;9.192;2023-04-24T07:39:09;2.20;;;1.80;;
568;SDS011;269;48.884;9.192;2023-04-24T07:41:37;3.35;;;2.03;;
568;SDS011;269;48.884;9.192;2023-04-24T07:44:04;2.43;;;2.10;;
568;SDS011;269;48.884;9.192;2023-04-24T07:46:32;1.73;;;1.63;;
568;SDS011;269;48.884;9.192;2023-04-24T07:48:58;2.40;;;1.75;;
568;SDS011;269;48.884;9.192;2023-04-24T07:51:26;1.50;;;1.40;;
568;SDS011;269;48.884;9.192;2023-04-24T07:53:54;1.70;;;1.60;;
568;SDS011;269;48.884;9.192;2023-04-24T07:56:21;1.63;;;1.52;;
568;SDS011;269;48.884;9.192;2023-04-24T07:58:49;2.03;;;1.45;;
568;SDS011;269;48.884;9.192;2023-04-24T08:01:17;1.83;;;1.73;;
568;SDS011;269;48.884;9.192;2023-04-24T08:03:43;2.33;;;1.75;;
568;SDS011;269;48.884;9.192;2023-04-24T08:06:11;1.87;;;1.70;;
568;SDS011;269;48.884;9.192;2023-04-24T08:08:38;1.40;;;1.30;;
568;SDS011;269;48.884;9.192;2023-04-24T08:11:05;3.30;;;1.80;;
568;SDS011;269;48.884;9.192;2023-04-24T08:13:32;1.90;;;1.80;;
568;SDS011;269;48.884;9.192;2023-04-24T08:16:01;1.80;;;1.70;;
568;SDS011;269;48.884;9.192;2023-04-24T08:18:28;1.70;;;1.60;;
568;SDS011;269;48.884;9.192;2023-04-24T08:20:55;1.93;;;1.50;;
568;SDS011;269;48.884;9.192;2023-04-24T08:23:26;1.60;;;1.47;;
568;SDS011;269;48.884;9.192;2023-04-24T08:25:54;2.13;;;1.43;;
568;SDS011;269;48.884;9.192;2023-04-24T08:28:22;2.03;;;1.50;;
568;SDS011;269;48.884;9.192;2023-04-24T08:30:49;1.70;;;1.60;;
568;SDS011;269;48.884;9.192;2023-04-24T08:33:21;2.20;;;1.80;;
568;SDS011;269;48.884;9.192;2023-04-24T08:35:48;1.70;;;1.60;;
568;SDS011;269;48.884;9.192;2023-04-24T08:38:15;2.00;;;1.77;;
568;SDS011;269;48.884;9.192;2023-04-24T08:40:43;1.77;;;1.43;;
568;SDS011;269;48.884;9.192;2023-04-24T08:43:11;1.90;;;1.37;;
568;SDS011;269;48.884;9.192;2023-04-24T08:45:40;1.40;;;1.30;;
568;SDS011;269;48.884;9.192;2023-04-24T08:48:07;1.40;;;1.30;;
568;SDS011;269;48.884;9.192;2023-04-24T08:50:36;1.37;;;1.20;;
568;SDS011;269;48.884;9.192;2023-04-24T08:53:03;1.80;;;1.30;;
568;SDS011;269;48.884;9.192;2023-04-24T08:55:33;1.57;;;1.20;;
568;SDS011;269;48.884;9.192;2023-04-24T08:58:01;1.87;;;1.30;;
568;SDS011;269;48.884;9.192;2023-04-24T09:00:29;1.50;;;1.30;;
568;SDS011;269;48.884;9.192;2023-04-24T09:02:56;1.60;;;1.50;;
568;SDS011;269;48.884;9.192;2023-04-24T09:05:24;1.50;;;1.20;;
568;SDS011;269;48.884;9.192;2023-04-24T09:07:54;3.15;;;1.55;;
568;SDS011;269;48.884;9.192;2023-04-24T09:10:23;1.40;;;1.27;;
568;SDS011;269;48.884;9.192;2023-04-24T09:12:51;1.58;;;1.33;;
568;SDS011;269;48.884;9.192;2023-04-24T09:15:19;1.73;;;1.50;;
568;SDS011;269;48.884;9.192;2023-04-24T09:17:46;2.23;;;1.60;;
568;SDS011;269;48.884;9.192;2023-04-24T09:20:13;2.03;;;1.60;;
568;SDS011;269;48.884;9.192;2023-04-24T09:22:41;2.13;;;1.47;;
568;SDS011;269;48.884;9.192;2023-04-24T09:25:10;1.83;;;1.30;;
568;SDS011;269;48.884;9.192;2023-04-24T09:27:41;2.85;;;1.83;;
568;SDS011;269;48.884;9.192;2023-04-24T09:30:09;1.50;;;1.10;;
568;SDS011;269;48.884;9.192;2023-04-24T09:32:37;1.58;;;1.10;;
568;SDS011;269;48.884;9.192;2023-04-24T09:35:06;1.75;;;1.10;;
568;SDS011;269;48.884;9.192;2023-04-24T09:37:35;1.45;;;1.25;;
568;SDS011;269;48.884;9.192;2023-04-24T09:40:14;1.48;;;1.10;;
568;SDS011;269;48.884;9.192;2023-04-24T09:42:45;3.17;;;2.38;;
568;SDS011;269;48.884;9.192;2023-04-24T09:45:17;3.83;;;1.47;;
568;SDS011;269;48.884;9.192;2023-04-24T09:47:45;2.20;;;1.30;;
568;SDS011;269;48.884;9.192;2023-04-24T09:50:13;1.90;;;1.27;;
568;SDS011;269;48.884;9.192;2023-04-24T09:52:41;1.30;;;1.20;;
568;SDS011;269;48.884;9.192;2023-04-24T09:55:10;1.90;;;1.40;;
568;SDS011;269;48.884;9.192;2023-04-24T09:57:47;1.70;;;1.43;;
568;SDS011;269;48.884;9.192;2023-04-24T10:00:20;1.50;;;1.40;;
568;SDS011;269;48.884;9.192;2023-04-24T10:02:58;1.95;;;1.30;;
568;SDS011;269;48.884;9.192;2023-04-24T10:05:27;1.77;;;1.17;;
568;SDS011;269;48.884;9.192;2023-04-24T10:07:57;1.63;;;1.37;;
568;SDS011;269;48.884;9.192;2023-04-24T10:10:26;3.87;;;1.50;;
568;SDS011;269;48.884;9.192;2023-04-24T10:12:55;3.17;;;1.60;;
568;SDS011;269;48.884;9.192;2023-04-24T10:15:22;1.30;;;1.20;;
568;SDS011;269;48.884;9.192;2023-04-24T10:17:52;1.87;;;1.70;;
568;SDS011;269;48.884;9.192;2023-04-24T10:20:20;3.33;;;1.40;;
568;SDS011;269;48.884;9.192;2023-04-24T10:22:49;1.50;;;1.40;;
568;SDS011;269;48.884;9.192;2023-04-24T10:25:18;1.90;;;1.30;;
568;SDS011;269;48.884;9.192;2023-04-24T10:27:47;2.45;;;1.65;;
568;SDS011;269;48.884;9.192;2023-04-24T10:30:16;2.17;;;1.40;;
568;SDS011;269;48.884;9.192;2023-04-24T10:32:44;3.13;;;1.50;;
568;SDS011;269;48.884;9.192;2023-04-24T10:35:12;2.90;;;1.50;;
568;SDS011;269;48.884;9.192;2023-04-24T10:37:42;2.00;;;1.58;;
568;SDS011;269;48.884;9.192;2023-04-24T10:40:12;2.17;;;1.45;;
568;SDS011;269;48.884;9.192;2023-04-24T10:42:43;2.35;;;1.50;;
568;SDS011;269;48.884;9.192;2023-04-24T10:45:19;2.10;;;1.60;;
568;SDS011;269;48.884;9.192;2023-04-24T10:47:56;1.73;;;1.63;;
568;SDS011;269;48.884;9.192;2023-04-24T10:50:25;1.73;;;1.63;;
568;SDS011;269;48.884;9.192;2023-04-24T10:52:53;1.83;;;1.73;;
568;SDS011;269;48.884;9.192;2023-04-24T10:55:42;2.22;;;1.67;;
568;SDS011;269;48.884;9.192;2023-04-24T10:58:10;2.30;;;1.67;;
568;SDS011;269;48.884;9.192;2023-04-24T11:00:40;1.83;;;1.73;;
568;SDS011;269;48.884;9.192;2023-04-24T11:03:08;2.15;;;1.55;;
568;SDS011;269;48.884;9.192;2023-04-24T11:06:00;2.30;;;1.50;;
568;SDS011;269;48.884;9.192;2023-04-24T11:08:29;1.53;;;1.40;;
568;SDS011;269;48.884;9.192;2023-04-24T11:10:58;2.30;;;1.60;;
568;SDS011;269;48.884;9.192;2023-04-24T11:16:33;2.13;;;1.70;;
568;SDS011;269;48.884;9.192;2023-04-24T11:19:03;1.60;;;1.50;;
568;SDS011;269;48.884;9.192;2023-04-24T11:21:32;2.80;;;1.73;;
568;SDS011;269;48.884;9.192;2023-04-24T11:24:22;2.63;;;1.60;;
568;SDS011;269;48.884;9.192;2023-04-24T11:26:51;2.17;;;1.83;;
568;SDS011;269;48.884;9.192;2023-04-24T11:29:20;2.07;;;1.60;;
568;SDS011;269;48.884;9.192;2023-04-24T11:31:48;1.70;;;1.60;;
568;SDS011;269;48.884;9.192;2023-04-24T11:34:17;1.70;;;1.60;;
568;SDS011;269;48.884;9.192;2023-04-24T11:36:44;1.80;;;1.70;;
568;SDS011;269;48.884;9.192;2023-04-24T11:39:12;2.00;;;1.90;;
568;SDS011;269;48.884;9.192;2023-04-24T11:41:40;2.37;;;1.70;;
568;SDS011;269;48.884;9.192;2023-04-24T11:44:08;2.13;;;2.03;;
568;SDS011;269;48.884;9.192;2023-04-24T11:46:36;2.60;;;1.80;;
568;SDS011;269;48.884;9.192;2023-04-24T11:49:06;2.00;;;1.87;;
568;SDS011;269;48.884;9.192;2023-04-24T11:51:33;2.10;;;1.67;;
568;SDS011;269;48.884;9.192;2023-04-24T11:54:01;1.53;;;1.40;;
568;SDS011;269;48.884;9.192;2023-04-24T11:56:28;2.03;;;1.67;;
568;SDS011;269;48.884;9.192;2023-04-24T11:58:55;1.40;;;1.30;;
568;SDS011;269;48.884;9.192;2023-04-24T12:01:22;1.93;;;1.13;;
568;SDS011;269;48.884;9.192;2023-04-24T12:03:50;1.40;;;1.30;;
568;SDS011;269;48.884;9.192;2023-04-24T12:06:26;1.63;;;1.53;;
568;SDS011;269;48.884;9.192;2023-04-24T12:08:53;1.90;;;1.50;;
568;SDS011;269;48.884;9.192;2023-04-24T12:11:23;1.93;;;1.83;;
568;SDS011;269;48.884;9.192;2023-04-24T12:13:51;3.60;;;1.60;;
568;SDS011;269;48.884;9.192;2023-04-24T12:16:18;1.73;;;1.63;;
568;SDS011;269;48.884;9.192;2023-04-24T12:18:45;2.50;;;1.67;;
568;SDS011;269;48.884;9.192;2023-04-24T12:21:15;2.00;;;1.80;;
568;SDS011;269;48.884;9.192;2023-04-24T12:23:45;2.10;;;1.90;;
568;SDS011;269;48.884;9.192;2023-04-24T12:26:15;1.70;;;1.60;;
568;SDS011;269;48.884;9.192;2023-04-24T12:28:46;1.60;;;1.50;;
568;SDS011;269;48.884;9.192;2023-04-24T12:31:14;2.13;;;1.70;;
568;SDS011;269;48.884;9.192;2023-04-24T12:33:42;1.67;;;1.50;;
568;SDS011;269;48.884;9.192;2023-04-24T12:36:10;1.70;;;1.60;;
568;SDS011;269;48.884;9.192;2023-04-24T12:38:38;1.73;;;1.60;;
568;SDS011;269;48.884;9.192;2023-04-24T12:41:11;2.00;;;1.43;;
568;SDS011;269;48.884;9.192;2023-04-24T12:43:50;2.87;;;1.87;;
568;SDS011;269;48.884;9.192;2023-04-24T12:46:18;2.25;;;2.05;;
568;SDS011;269;48.884;9.192;2023-04-24T12:48:45;1.80;;;1.70;;
568;SDS011;269;48.884;9.192;2023-04-24T12:51:12;1.50;;;1.40;;
568;SDS011;269;48.884;9.192;2023-04-24T12:53:40;2.03;;;1.50;;
568;SDS011;269;48.884;9.192;2023-04-24T12:56:07;2.05;;;1.55;;
568;SDS011;269;48.884;9.192;2023-04-24T12:58:35;1.73;;;1.63;;
568;SDS011;269;48.884;9.192;2023-04-24T13:01:02;2.20;;;1.67;;
568;SDS011;269;48.884;9.192;2023-04-24T13:03:29;1.67;;;1.57;;
568;SDS011;269;48.884;9.192;2023-04-24T13:05:56;2.63;;;1.40;;
568;SDS011;269;48.884;9.192;2023-04-24T13:08:23;4.72;;;1.60;;
568;SDS011;269;48.884;9.192;2023-04-24T13:10:50;1.85;;;1.42;;
568;SDS011;269;48.884;9.192;2023-04-24T13:13:19;2.03;;;1.80;;
568;SDS011;269;48.884;9.192;2023-04-24T13:15:47;2.10;;;2.00;;
568;SDS011;269;48.884;9.192;2023-04-24T13:18:14;2.13;;;1.93;;
568;SDS011;269;48.884;9.192;2023-04-24T13:20:41;2.73;;;2.53;;
568;SDS011;269;48.884;9.192;2023-04-24T13:23:09;2.15;;;2.05;;
568;SDS011;269;48.884;9.192;2023-04-24T13:25:36;2.40;;;2.20;;
568;SDS011;269;48.884;9.192;2023-04-24T13:28:04;2.45;;;2.17;;
568;SDS011;269;48.884;9.192;2023-04-24T13:30:31;3.10;;;2.20;;
568;SDS011;269;48.884;9.192;2023-04-24T13:33:00;2.43;;;2.23;;
568;SDS011;269;48.884;9.192;2023-04-24T13:35:27;2.73;;;2.37;;
568;SDS011;269;48.884;9.192;2023-04-24T13:37:54;2.13;;;1.93;;
568;SDS011;269;48.884;9.192;2023-04-24T13:40:21;2.50;;;2.30;;
568;SDS011;269;48.884;9.192;2023-04-24T13:42:48;2.50;;;2.30;;
568;SDS011;269;48.884;9.192;2023-04-24T13:45:16;2.30;;;2.10;;
568;SDS011;269;48.884;9.192;2023-04-24T13:47:43;3.07;;;2.30;;
568;SDS011;269;48.884;9.192;2023-04-24T13:50:12;2.33;;;2.20;;
568;SDS011;269;48.884;9.192;2023-04-24T13:52:39;2.33;;;2.13;;
568;SDS011;269;48.884;9.192;2023-04-24T13:55:06;2.40;;;2.07;;
568;SDS011;269;48.884;9.192;2023-04-24T13:57:33;2.67;;;2.40;;
568;SDS011;269;48.884;9.192;2023-04-24T14:00:01;1.90;;;1.77;;
568;SDS011;269;48.884;9.192;2023-04-24T14:02:29;3.00;;;2.30;;
568;SDS011;269;48.884;9.192;2023-04-24T14:04:56;2.40;;;2.13;;
568;SDS011;269;48.884;9.192;2023-04-24T14:07:25;2.60;;;2.40;;
568;SDS011;269;48.884;9.192;2023-04-24T14:09:52;2.67;;;2.47;;
568;SDS011;269;48.884;9.192;2023-04-24T14:12:19;2.37;;;2.17;;
568;SDS011;269;48.884;9.192;2023-04-24T14:14:47;2.40;;;2.30;;
568;SDS011;269;48.884;9.192;2023-04-24T14:17:14;2.95;;;2.30;;
568;SDS011;269;48.884;9.192;2023-04-24T14:19:41;3.30;;;1.90;;
568;SDS011;269;48.884;9.192;2023-04-24T14:22:09;2.53;;;2.33;;
568;SDS011;269;48.884;9.192;2023-04-24T14:24:37;2.83;;;2.38;;
568;SDS011;269;48.884;9.192;2023-04-24T14:27:04;2.30;;;2.13;;
568;SDS011;269;48.884;9.192;2023-04-24T14:29:31;3.90;;;2.73;;
568;SDS011;269;48.884;9.192;2023-04-24T14:31:58;2.00;;;1.80;;
568;SDS011;269;48.884;9.192;2023-04-24T14:34:25;2.50;;;2.40;;
568;SDS011;269;48.884;9.192;2023-04-24T14:36:52;2.10;;;1.93;;
568;SDS011;269;48.884;9.192;2023-04-24T14:39:20;3.00;;;2.50;;
568;SDS011;269;48.884;9.192;2023-04-24T14:41:48;2.70;;;2.47;;
568;SDS011;269;48.884;9.192;2023-04-24T14:44:15;2.20;;;1.80;;
568;SDS011;269;48.884;9.192;2023-04-24T14:46:42;4.05;;;2.25;;
568;SDS011;269;48.884;9.192;2023-04-24T14:49:09;2.20;;;2.00;;
568;SDS011;269;48.884;9.192;2023-04-24T14:51:38;3.30;;;2.00;;
568;SDS011;269;48.884;9.192;2023-04-24T14:54:06;2.40;;;2.20;;
568;SDS011;269;48.884;9.192;2023-04-24T14:56:33;2.37;;;2.07;;
568;SDS011;269;48.884;9.192;2023-04-24T14:59:02;2.20;;;2.00;;
568;SDS011;269;48.884;9.192;2023-04-24T15:01:29;2.00;;;1.80;;
568;SDS011;269;48.884;9.192;2023-04-24T15:03:56;1.93;;;1.83;;
568;SDS011;269;48.884;9.192;2023-04-24T15:06:23;1.70;;;1.60;;
568;SDS011;269;48.884;9.192;2023-04-24T15:08:50;1.73;;;1.63;;
568;SDS011;269;48.884;9.192;2023-04-24T15:11:17;1.97;;;1.77;;
568;SDS011;269;48.884;9.192;2023-04-24T15:13:45;2.33;;;1.70;;
568;SDS011;269;48.884;9.192;2023-04-24T15:16:14;3.73;;;2.20;;
568;SDS011;269;48.884;9.192;2023-04-24T15:18:41;2.27;;;2.07;;
568;SDS011;269;48.884;9.192;2023-04-24T15:21:08;1.93;;;1.83;;
568;SDS011;269;48.884;9.192;2023-04-24T15:23:35;2.40;;;2.20;;
568;SDS011;269;48.884;9.192;2023-04-24T15:26:02;2.20;;;2.00;;
568;SDS011;269;48.884;9.192;2023-04-24T15:28:29;3.00;;;2.20;;
568;SDS011;269;48.884;9.192;2023-04-24T15:30:56;2.20;;;2.10;;
568;SDS011;269;48.884;9.192;2023-04-24T15:33:25;2.30;;;2.10;;
568;SDS011;269;48.884;9.192;2023-04-24T15:35:52;1.40;;;1.30;;
568;SDS011;269;48.884;9.192;2023-04-24T15:38:19;1.67;;;1.40;;
568;SDS011;269;48.884;9.192;2023-04-24T15:40:46;1.60;;;1.50;;
568;SDS011;269;48.884;9.192;2023-04-24T15:43:14;1.97;;;1.30;;
568;SDS011;269;48.884;9.192;2023-04-24T15:45:42;1.90;;;1.30;;
568;SDS011;269;48.884;9.192;2023-04-24T15:48:09;1.50;;;1.40;;
568;SDS011;269;48.884;9.192;2023-04-24T15:50:38;1.70;;;1.60;;
568;SDS011;269;48.884;9.192;2023-04-24T15:53:05;1.60;;;1.50;;